sensor_id;sensor_type;location;lat;lon;timestamp;pressure;altitude;pressure_sealevel;temperature;humidity
6829;BME280;17930;48.592;8.868;2023-08-30T00:01:41;96405.34;;;12.81;100.00
6829;BME280;17930;48.592;8.868;2023-08-30T00:04:07;96404.69;;;12.76;100.00
6829;BME280;17930;48.592;8.868;2023-08-30T00:06:34;96400.88;;;12.68;100.00
6829;BME280;17930;48.592;8.868;2023-08-30T00:09:01;96399.25;;;12.72;100.00
6829;BME280;17930;48.592;8.868;2023-08-30T00:11:28;96402.19;;;12.84;100.00
6829;BME280;17930;48.592;8.868;2023-08-30T00:14:02;96399.84;;;12.82;100.00
6829;BME280;17930;48.592;8.868;2023-08-30T00:16:31;96399.03;;;12.82;100.00
6829;BME280;17930;48.592;8.868;2023-08-30T00:18:58;96400.09;;;12.81;100.00
6829;BME280;17930;48.592;8.868;2023-08-30T00:21:25;96395.94;;;12.80;100.00
6829;BME280;17930;48.592;8.868;2023-08-30T00:23:52;96396.84;;;12.62;100.00
6829;BME280;17930;48.592;8.868;2023-08-30T00:26:19;96397.91;;;12.48;100.00
6829;BME280;17930;48.592;8.868;2023-08-30T00:28:45;96400.34;;;12.44;100.00
6829;BME280;17930;48.592;8.868;2023-08-30T00:31:12;96394.41;;;12.52;100.00
6829;BME280;17930;48.592;8.868;2023-08-30T00:33:40;96385.31;;;12.63;100.00
6829;BME280;17930;48.592;8.868;2023-08-30T00:36:07;96381.63;;;12.64;100.00
6829;BME280;17930;48.592;8.868;2023-08-30T00:38:34;96381.44;;;12.61;100.00
6829;BME280;17930;48.592;8.868;2023-08-30T00:41:00;96377.00;;;12.48;100.00
6829;BME280;17930;48.592;8.868;2023-08-30T00:43:27;96377.75;;;12.48;100.00
6829;BME280;17930;48.592;8.868;2023-08-30T00:45:53;96373.00;;;12.37;100.00
6829;BME280;17930;48.592;8.868;2023-08-30T00:48:20;96373.50;;;12.52;100.00
6829;BME280;17930;48.592;8.868;2023-08-30T00:50:48;96369.81;;;12.53;100.00
6829;BME280;17930;48.592;8.868;2023-08-30T00:53:15;96369.22;;;12.43;100.00
6829;BME280;17930;48.592;8.868;2023-08-30T00:55:43;96366.44;;;12.39;100.00
6829;BME280;17930;48.592;8.868;2023-08-30T00:58:10;96360.53;;;12.34;100.00
6829;BME280;17930;48.592;8.868;2023-08-30T01:00:38;96364.41;;;12.36;100.00
6829;BME280;17930;48.592;8.868;2023-08-30T01:03:06;96369.06;;;12.39;100.00
6829;BME280;17930;48.592;8.868;2023-08-30T01:05:33;96360.91;;;12.54;100.00
6829;BME280;17930;48.592;8.868;2023-08-30T01:08:02;96355.25;;;12.61;100.00
6829;BME280;17930;48.592;8.868;2023-08-30T01:10:38;96358.28;;;12.54;100.00
6829;BME280;17930;48.592;8.868;2023-08-30T01:13:10;96351.59;;;12.48;100.00
6829;BME280;17930;48.592;8.868;2023-08-30T01:15:40;96348.03;;;12.44;100.00
6829;BME280;17930;48.592;8.868;2023-08-30T01:18:08;96350.44;;;12.41;100.00
6829;BME280;17930;48.592;8.868;2023-08-30T01:20:39;96344.47;;;12.14;100.00
6829;BME280;17930;48.592;8.868;2023-08-30T01:23:15;96346.19;;;12.05;100.00
6829;BME280;17930;48.592;8.868;2023-08-30T01:25:49;96349.66;;;12.00;100.00
6829;BME280;17930;48.592;8.868;2023-08-30T01:28:23;96344.84;;;11.94;100.00
6829;BME280;17930;48.592;8.868;2023-08-30T01:30:52;96352.19;;;11.78;100.00
6829;BME280;17930;48.592;8.868;2023-08-30T01:33:20;96341.81;;;11.74;100.00
6829;BME280;17930;48.592;8.868;2023-08-30T01:35:47;96344.06;;;11.80;100.00
6829;BME280;17930;48.592;8.868;2023-08-30T01:38:14;96341.69;;;11.65;100.00
6829;BME280;17930;48.592;8.868;2023-08-30T01:40:42;96342.09;;;11.72;100.00
6829;BME280;17930;48.592;8.868;2023-08-30T01:43:10;96339.28;;;11.69;100.00
6829;BME280;17930;48.592;8.868;2023-08-30T01:45:41;96342.09;;;11.72;100.00
6829;BME280;17930;48.592;8.868;2023-08-30T01:48:11;96338.41;;;11.60;100.00
6829;BME280;17930;48.592;8.868;2023-08-30T01:50:39;96342.56;;;11.42;100.00
6829;BME280;17930;48.592;8.868;2023-08-30T01:53:06;96346.97;;;11.28;100.00
6829;BME280;17930;48.592;8.868;2023-08-30T01:55:35;96348.69;;;11.20;100.00
6829;BME280;17930;48.592;8.868;2023-08-30T01:58:03;96346.06;;;11.38;100.00
6829;BME280;17930;48.592;8.868;2023-08-30T02:00:29;96345.69;;;11.63;100.00
6829;BME280;17930;48.592;8.868;2023-08-30T02:02:58;96351.84;;;11.53;100.00
6829;BME280;17930;48.592;8.868;2023-08-30T02:05:25;96355.91;;;11.27;100.00
6829;BME280;17930;48.592;8.868;2023-08-30T02:07:55;96345.75;;;11.08;100.00
6829;BME280;17930;48.592;8.868;2023-08-30T02:10:25;96351.03;;;11.21;100.00
6829;BME280;17930;48.592;8.868;2023-08-30T02:12:55;96344.94;;;11.25;100.00
6829;BME280;17930;48.592;8.868;2023-08-30T02:15:24;96337.09;;;11.25;100.00
6829;BME280;17930;48.592;8.868;2023-08-30T02:17:52;96348.69;;;11.20;100.00
6829;BME280;17930;48.592;8.868;2023-08-30T02:20:21;96343.88;;;11.26;100.00
6829;BME280;17930;48.592;8.868;2023-08-30T02:22:48;96346.81;;;11.38;100.00
6829;BME280;17930;48.592;8.868;2023-08-30T02:25:14;96350.50;;;11.56;100.00
6829;BME280;17930;48.592;8.868;2023-08-30T02:27:41;96351.09;;;11.34;100.00
6829;BME280;17930;48.592;8.868;2023-08-30T02:30:08;96354.66;;;11.07;100.00
6829;BME280;17930;48.592;8.868;2023-08-30T02:32:34;96356.19;;;11.08;100.00
6829;BME280;17930;48.592;8.868;2023-08-30T02:35:02;96353.16;;;11.19;100.00
6829;BME280;17930;48.592;8.868;2023-08-30T02:37:30;96348.78;;;11.15;100.00
6829;BME280;17930;48.592;8.868;2023-08-30T02:39:56;96351.56;;;11.05;100.00
6829;BME280;17930;48.592;8.868;2023-08-30T02:42:23;96354.16;;;11.05;100.00
6829;BME280;17930;48.592;8.868;2023-08-30T02:44:51;96356.31;;;11.34;100.00
6829;BME280;17930;48.592;8.868;2023-08-30T02:47:18;96348.25;;;11.49;100.00
6829;BME280;17930;48.592;8.868;2023-08-30T02:49:45;96356.78;;;11.55;100.00
6829;BME280;17930;48.592;8.868;2023-08-30T02:52:11;96356.13;;;11.63;100.00
6829;BME280;17930;48.592;8.868;2023-08-30T02:54:39;96357.53;;;11.55;100.00
6829;BME280;17930;48.592;8.868;2023-08-30T02:57:06;96359.50;;;11.63;100.00
6829;BME280;17930;48.592;8.868;2023-08-30T02:59:33;96364.25;;;11.75;100.00
6829;BME280;17930;48.592;8.868;2023-08-30T03:01:59;96366.09;;;11.74;100.00
6829;BME280;17930;48.592;8.868;2023-08-30T03:04:27;96357.00;;;11.72;100.00
6829;BME280;17930;48.592;8.868;2023-08-30T03:06:53;96356.44;;;11.75;100.00
6829;BME280;17930;48.592;8.868;2023-08-30T03:09:20;96344.63;;;11.77;100.00
6829;BME280;17930;48.592;8.868;2023-08-30T03:11:48;96351.88;;;11.80;100.00
6829;BME280;17930;48.592;8.868;2023-08-30T03:14:15;96469.00;;;11.78;100.00
6829;BME280;17930;48.592;8.868;2023-08-30T03:16:42;96478.94;;;11.76;100.00
6829;BME280;17930;48.592;8.868;2023-08-30T03:19:10;96477.25;;;11.67;100.00
6829;BME280;17930;48.592;8.868;2023-08-30T03:21:37;96477.75;;;11.69;100.00
6829;BME280;17930;48.592;8.868;2023-08-30T03:24:04;96471.34;;;11.61;100.00
6829;BME280;17930;48.592;8.868;2023-08-30T03:26:31;96479.03;;;11.71;100.00
6829;BME280;17930;48.592;8.868;2023-08-30T03:28:59;96472.97;;;11.57;100.00
6829;BME280;17930;48.592;8.868;2023-08-30T03:31:25;96471.63;;;11.41;100.00
6829;BME280;17930;48.592;8.868;2023-08-30T03:33:52;96472.53;;;11.32;100.00
6829;BME280;17930;48.592;8.868;2023-08-30T03:36:19;96478.50;;;11.32;100.00
6829;BME280;17930;48.592;8.868;2023-08-30T03:38:46;96471.75;;;11.31;100.00
6829;BME280;17930;48.592;8.868;2023-08-30T03:41:14;96470.75;;;11.27;100.00
6829;BME280;17930;48.592;8.868;2023-08-30T03:43:40;96490.31;;;11.30;100.00
6829;BME280;17930;48.592;8.868;2023-08-30T03:46:08;96496.88;;;11.27;100.00
6829;BME280;17930;48.592;8.868;2023-08-30T03:48:37;96581.31;;;11.18;100.00
6829;BME280;17930;48.592;8.868;2023-08-30T03:51:03;96582.06;;;11.19;100.00
6829;BME280;17930;48.592;8.868;2023-08-30T03:53:30;96582.03;;;11.23;100.00
6829;BME280;17930;48.592;8.868;2023-08-30T03:55:57;96582.63;;;11.16;100.00
6829;BME280;17930;48.592;8.868;2023-08-30T03:58:24;96587.41;;;11.09;100.00
6829;BME280;17930;48.592;8.868;2023-08-30T04:00:51;96584.31;;;11.07;100.00
6829;BME280;17930;48.592;8.868;2023-08-30T04:03:19;96581.53;;;11.22;100.00
6829;BME280;17930;48.592;8.868;2023-08-30T04:05:46;96591.97;;;11.22;100.00
6829;BME280;17930;48.592;8.868;2023-08-30T04:08:12;96585.34;;;11.06;100.00
6829;BME280;17930;48.592;8.868;2023-08-30T04:10:41;96591.66;;;11.05;100.00
6829;BME280;17930;48.592;8.868;2023-08-30T04:13:09;96587.53;;;11.22;100.00
6829;BME280;17930;48.592;8.868;2023-08-30T04:15:36;96579.84;;;11.30;100.00
6829;BME280;17930;48.592;8.868;2023-08-30T04:18:04;96584.44;;;11.38;100.00
6829;BME280;17930;48.592;8.868;2023-08-30T04:20:33;96583.91;;;11.41;100.00
6829;BME280;17930;48.592;8.868;2023-08-30T04:23:01;96588.53;;;11.49;100.00
6829;BME280;17930;48.592;8.868;2023-08-30T04:25:28;96589.06;;;11.46;100.00
6829;BME280;17930;48.592;8.868;2023-08-30T04:27:54;96590.56;;;11.52;100.00
6829;BME280;17930;48.592;8.868;2023-08-30T04:30:21;96588.06;;;11.42;100.00
6829;BME280;17930;48.592;8.868;2023-08-30T04:32:48;96587.94;;;11.52;100.00
6829;BME280;17930;48.592;8.868;2023-08-30T04:35:15;96587.34;;;11.37;100.00
6829;BME280;17930;48.592;8.868;2023-08-30T04:37:43;96582.03;;;11.23;100.00
6829;BME280;17930;48.592;8.868;2023-08-30T04:40:10;96588.00;;;11.24;100.00
6829;BME280;17930;48.592;8.868;2023-08-30T04:42:37;96576.84;;;11.19;100.00
6829;BME280;17930;48.592;8.868;2023-08-30T04:45:05;96586.66;;;11.31;100.00
6829;BME280;17930;48.592;8.868;2023-08-30T04:47:32;96586.66;;;11.31;100.00
6829;BME280;17930;48.592;8.868;2023-08-30T04:49:59;96586.28;;;11.38;100.00
6829;BME280;17930;48.592;8.868;2023-08-30T04:52:26;96584.94;;;11.40;100.00
6829;BME280;17930;48.592;8.868;2023-08-30T04:54:54;96587.06;;;11.38;100.00
6829;BME280;17930;48.592;8.868;2023-08-30T04:57:21;96581.81;;;11.38;100.00
6829;BME280;17930;48.592;8.868;2023-08-30T04:59:48;96578.16;;;11.39;100.00
6829;BME280;17930;48.592;8.868;2023-08-30T05:02:15;96584.38;;;11.43;100.00
6829;BME280;17930;48.592;8.868;2023-08-30T05:04:41;96572.63;;;11.46;100.00
6829;BME280;17930;48.592;8.868;2023-08-30T05:07:08;96574.00;;;11.62;100.00
6829;BME280;17930;48.592;8.868;2023-08-30T05:09:35;96579.69;;;11.64;100.00
6829;BME280;17930;48.592;8.868;2023-08-30T05:12:03;96579.78;;;11.77;100.00
6829;BME280;17930;48.592;8.868;2023-08-30T05:14:30;96573.00;;;11.76;100.00
6829;BME280;17930;48.592;8.868;2023-08-30T05:16:57;96579.56;;;11.92;100.00
6829;BME280;17930;48.592;8.868;2023-08-30T05:19:24;96577.94;;;11.96;100.00
6829;BME280;17930;48.592;8.868;2023-08-30T05:21:50;96578.78;;;11.91;100.00
6829;BME280;17930;48.592;8.868;2023-08-30T05:24:20;96580.22;;;11.84;100.00
6829;BME280;17930;48.592;8.868;2023-08-30T05:26:47;96582.88;;;11.97;100.00
6829;BME280;17930;48.592;8.868;2023-08-30T05:29:15;96585.22;;;11.99;100.00
6829;BME280;17930;48.592;8.868;2023-08-30T05:31:42;96575.59;;;12.13;100.00
6829;BME280;17930;48.592;8.868;2023-08-30T05:34:09;96589.22;;;12.10;100.00
6829;BME280;17930;48.592;8.868;2023-08-30T05:36:36;96585.56;;;12.11;100.00
6829;BME280;17930;48.592;8.868;2023-08-30T05:39:03;96576.22;;;12.05;100.00
6829;BME280;17930;48.592;8.868;2023-08-30T05:41:30;96577.34;;;12.17;100.00
6829;BME280;17930;48.592;8.868;2023-08-30T05:43:56;96579.03;;;12.27;100.00
6829;BME280;17930;48.592;8.868;2023-08-30T05:46:25;96575.16;;;12.24;100.00
6829;BME280;17930;48.592;8.868;2023-08-30T05:48:51;96575.91;;;12.25;100.00
6829;BME280;17930;48.592;8.868;2023-08-30T05:51:20;96582.13;;;12.28;100.00
6829;BME280;17930;48.592;8.868;2023-08-30T05:53:46;96574.78;;;12.30;100.00
6829;BME280;17930;48.592;8.868;2023-08-30T05:56:13;96581.00;;;12.34;100.00
6829;BME280;17930;48.592;8.868;2023-08-30T05:58:40;96585.81;;;12.27;100.00
6829;BME280;17930;48.592;8.868;2023-08-30T06:01:06;96592.25;;;12.35;100.00
6829;BME280;17930;48.592;8.868;2023-08-30T06:03:35;96584.25;;;12.27;100.00
6829;BME280;17930;48.592;8.868;2023-08-30T06:06:05;96584.50;;;12.43;100.00
6829;BME280;17930;48.592;8.868;2023-08-30T06:08:32;96581.50;;;12.50;100.00
6829;BME280;17930;48.592;8.868;2023-08-30T06:10:59;96577.97;;;12.59;100.00
6829;BME280;17930;48.592;8.868;2023-08-30T06:13:25;96578.38;;;12.66;100.00
6829;BME280;17930;48.592;8.868;2023-08-30T06:15:52;96581.28;;;12.78;100.00
6829;BME280;17930;48.592;8.868;2023-08-30T06:18:19;96581.28;;;12.78;100.00
6829;BME280;17930;48.592;8.868;2023-08-30T06:20:47;96582.63;;;12.62;100.00
6829;BME280;17930;48.592;8.868;2023-08-30T06:23:17;96578.44;;;12.61;100.00
6829;BME280;17930;48.592;8.868;2023-08-30T06:25:44;96577.59;;;12.79;100.00
6829;BME280;17930;48.592;8.868;2023-08-30T06:28:10;96584.13;;;12.95;100.00
6829;BME280;17930;48.592;8.868;2023-08-30T06:30:37;96573.66;;;12.95;100.00
6829;BME280;17930;48.592;8.868;2023-08-30T06:33:06;96584.72;;;12.92;100.00
6829;BME280;17930;48.592;8.868;2023-08-30T06:35:36;96587.16;;;12.88;100.00
6829;BME280;17930;48.592;8.868;2023-08-30T06:38:06;96580.34;;;13.01;100.00
6829;BME280;17930;48.592;8.868;2023-08-30T06:40:32;96586.97;;;13.12;100.00
6829;BME280;17930;48.592;8.868;2023-08-30T06:42:59;96585.78;;;13.18;100.00
6829;BME280;17930;48.592;8.868;2023-08-30T06:45:26;96591.41;;;13.25;100.00
6829;BME280;17930;48.592;8.868;2023-08-30T06:47:52;96582.13;;;13.19;100.00
6829;BME280;17930;48.592;8.868;2023-08-30T06:50:19;96590.06;;;13.27;100.00
6829;BME280;17930;48.592;8.868;2023-08-30T06:52:46;96580.19;;;13.24;100.00
6829;BME280;17930;48.592;8.868;2023-08-30T06:55:14;96582.69;;;13.42;100.00
6829;BME280;17930;48.592;8.868;2023-08-30T06:57:41;96584.03;;;13.53;100.00
6829;BME280;17930;48.592;8.868;2023-08-30T07:00:09;96579.53;;;13.67;100.00
6829;BME280;17930;48.592;8.868;2023-08-30T07:02:37;96575.25;;;13.71;100.00
6829;BME280;17930;48.592;8.868;2023-08-30T07:05:05;96569.41;;;13.74;100.00
6829;BME280;17930;48.592;8.868;2023-08-30T07:07:32;96560.41;;;13.80;100.00
6829;BME280;17930;48.592;8.868;2023-08-30T07:09:58;96555.84;;;13.72;100.00
6829;BME280;17930;48.592;8.868;2023-08-30T07:12:26;96546.09;;;13.86;100.00
6829;BME280;17930;48.592;8.868;2023-08-30T07:14:53;96548.34;;;14.01;100.00
6829;BME280;17930;48.592;8.868;2023-08-30T07:17:20;96542.34;;;14.00;100.00
6829;BME280;17930;48.592;8.868;2023-08-30T07:19:47;96542.63;;;13.99;100.00
6829;BME280;17930;48.592;8.868;2023-08-30T07:22:14;96538.56;;;14.06;100.00
6829;BME280;17930;48.592;8.868;2023-08-30T07:24:41;96538.38;;;14.25;100.00
6829;BME280;17930;48.592;8.868;2023-08-30T07:27:08;96536.94;;;14.19;100.00
6829;BME280;17930;48.592;8.868;2023-08-30T07:29:36;96532.16;;;14.21;100.00
6829;BME280;17930;48.592;8.868;2023-08-30T07:32:04;96542.88;;;14.54;100.00
6829;BME280;17930;48.592;8.868;2023-08-30T07:34:30;96532.22;;;14.51;100.00
6829;BME280;17930;48.592;8.868;2023-08-30T07:36:57;96526.69;;;14.61;100.00
6829;BME280;17930;48.592;8.868;2023-08-30T07:39:24;96526.25;;;14.67;100.00
6829;BME280;17930;48.592;8.868;2023-08-30T07:41:50;96525.38;;;14.80;100.00
6829;BME280;17930;48.592;8.868;2023-08-30T07:44:17;96517.72;;;14.92;100.00
6829;BME280;17930;48.592;8.868;2023-08-30T07:46:49;96503.09;;;15.08;100.00
6829;BME280;17930;48.592;8.868;2023-08-30T07:49:15;96505.19;;;15.36;100.00
6829;BME280;17930;48.592;8.868;2023-08-30T07:51:42;96498.88;;;15.54;100.00
6829;BME280;17930;48.592;8.868;2023-08-30T07:54:09;96480.28;;;15.42;100.00
6829;BME280;17930;48.592;8.868;2023-08-30T07:56:35;96492.19;;;15.39;100.00
6829;BME280;17930;48.592;8.868;2023-08-30T07:59:02;96503.03;;;15.63;100.00
6829;BME280;17930;48.592;8.868;2023-08-30T08:01:29;96494.53;;;15.75;100.00
6829;BME280;17930;48.592;8.868;2023-08-30T08:03:57;96493.94;;;15.69;100.00
6829;BME280;17930;48.592;8.868;2023-08-30T08:06:24;96498.06;;;16.04;100.00
6829;BME280;17930;48.592;8.868;2023-08-30T08:08:50;96490.31;;;16.16;100.00
6829;BME280;17930;48.592;8.868;2023-08-30T08:11:17;96478.09;;;16.03;100.00
6829;BME280;17930;48.592;8.868;2023-08-30T08:13:44;96478.88;;;16.12;100.00
6829;BME280;17930;48.592;8.868;2023-08-30T08:16:10;96481.19;;;16.22;100.00
6829;BME280;17930;48.592;8.868;2023-08-30T08:18:37;96481.63;;;16.41;100.00
6829;BME280;17930;48.592;8.868;2023-08-30T08:21:05;96470.69;;;16.67;100.00
6829;BME280;17930;48.592;8.868;2023-08-30T08:23:32;96473.00;;;16.69;100.00
6829;BME280;17930;48.592;8.868;2023-08-30T08:26:00;96465.69;;;16.74;100.00
6829;BME280;17930;48.592;8.868;2023-08-30T08:28:28;96465.41;;;16.96;100.00
6829;BME280;17930;48.592;8.868;2023-08-30T08:30:55;96458.78;;;17.19;100.00
6829;BME280;17930;48.592;8.868;2023-08-30T08:33:21;96458.97;;;17.14;100.00
6829;BME280;17930;48.592;8.868;2023-08-30T08:35:50;96456.13;;;17.19;100.00
6829;BME280;17930;48.592;8.868;2023-08-30T08:38:18;96454.72;;;17.01;100.00
6829;BME280;17930;48.592;8.868;2023-08-30T08:40:45;96455.53;;;17.22;100.00
6829;BME280;17930;48.592;8.868;2023-08-30T08:43:12;96447.59;;;17.50;100.00
6829;BME280;17930;48.592;8.868;2023-08-30T08:45:38;96430.41;;;17.97;100.00
6829;BME280;17930;48.592;8.868;2023-08-30T08:48:06;96428.34;;;18.47;100.00
6829;BME280;17930;48.592;8.868;2023-08-30T08:50:33;96406.31;;;18.78;100.00
6829;BME280;17930;48.592;8.868;2023-08-30T08:53:01;96403.91;;;19.09;100.00
6829;BME280;17930;48.592;8.868;2023-08-30T08:55:29;96403.31;;;19.66;100.00
6829;BME280;17930;48.592;8.868;2023-08-30T08:58:00;96386.97;;;19.37;100.00
6829;BME280;17930;48.592;8.868;2023-08-30T09:00:30;96265.19;;;19.34;100.00
6829;BME280;17930;48.592;8.868;2023-08-30T09:02:57;96255.56;;;19.87;100.00
6829;BME280;17930;48.592;8.868;2023-08-30T09:05:24;96179.63;;;20.41;100.00
6829;BME280;17930;48.592;8.868;2023-08-30T09:07:51;96178.69;;;21.05;100.00
6829;BME280;17930;48.592;8.868;2023-08-30T09:10:20;96160.72;;;21.40;100.00
6829;BME280;17930;48.592;8.868;2023-08-30T09:12:48;96156.53;;;22.64;100.00
6829;BME280;17930;48.592;8.868;2023-08-30T09:15:15;96155.38;;;22.62;100.00
6829;BME280;17930;48.592;8.868;2023-08-30T09:17:42;96146.91;;;22.85;100.00
6829;BME280;17930;48.592;8.868;2023-08-30T09:20:11;96146.03;;;22.42;100.00
6829;BME280;17930;48.592;8.868;2023-08-30T09:22:38;96143.00;;;23.09;100.00
6829;BME280;17930;48.592;8.868;2023-08-30T09:25:07;96145.47;;;22.59;100.00
6829;BME280;17930;48.592;8.868;2023-08-30T09:27:35;96147.81;;;22.09;100.00
6829;BME280;17930;48.592;8.868;2023-08-30T09:30:06;96139.66;;;22.82;100.00
6829;BME280;17930;48.592;8.868;2023-08-30T09:32:40;96136.03;;;22.65;100.00
6829;BME280;17930;48.592;8.868;2023-08-30T09:35:07;96129.94;;;23.33;100.00
6829;BME280;17930;48.592;8.868;2023-08-30T09:37:34;96133.25;;;23.23;100.00
6829;BME280;17930;48.592;8.868;2023-08-30T09:40:01;96127.59;;;23.71;100.00
6829;BME280;17930;48.592;8.868;2023-08-30T09:42:28;96120.38;;;24.32;100.00
6829;BME280;17930;48.592;8.868;2023-08-30T09:44:56;96110.63;;;24.64;100.00
6829;BME280;17930;48.592;8.868;2023-08-30T09:47:25;96110.38;;;24.15;100.00
6829;BME280;17930;48.592;8.868;2023-08-30T09:49:54;96109.16;;;24.87;100.00
6829;BME280;17930;48.592;8.868;2023-08-30T09:52:23;96102.94;;;24.52;100.00
6829;BME280;17930;48.592;8.868;2023-08-30T09:54:51;96099.53;;;24.55;100.00
6829;BME280;17930;48.592;8.868;2023-08-30T09:57:19;96101.66;;;24.22;100.00
6829;BME280;17930;48.592;8.868;2023-08-30T09:59:48;96098.66;;;23.70;100.00
6829;BME280;17930;48.592;8.868;2023-08-30T10:02:16;96100.31;;;23.91;100.00
6829;BME280;17930;48.592;8.868;2023-08-30T10:04:46;96093.47;;;23.90;100.00
6829;BME280;17930;48.592;8.868;2023-08-30T10:07:13;96093.28;;;24.26;100.00
6829;BME280;17930;48.592;8.868;2023-08-30T10:09:42;96087.53;;;24.14;100.00
6829;BME280;17930;48.592;8.868;2023-08-30T10:12:10;96092.09;;;25.02;100.00
6829;BME280;17930;48.592;8.868;2023-08-30T10:14:37;96076.47;;;25.49;100.00
6829;BME280;17930;48.592;8.868;2023-08-30T10:17:05;96067.66;;;25.62;100.00
6829;BME280;17930;48.592;8.868;2023-08-30T10:19:34;96069.53;;;26.03;100.00
6829;BME280;17930;48.592;8.868;2023-08-30T10:22:03;96068.44;;;25.83;100.00
6829;BME280;17930;48.592;8.868;2023-08-30T10:24:35;96056.47;;;26.30;100.00
6829;BME280;17930;48.592;8.868;2023-08-30T10:27:05;96054.94;;;26.25;100.00
6829;BME280;17930;48.592;8.868;2023-08-30T10:29:34;96053.00;;;26.29;100.00
6829;BME280;17930;48.592;8.868;2023-08-30T10:32:02;96049.78;;;26.69;100.00
6829;BME280;17930;48.592;8.868;2023-08-30T10:34:32;96053.50;;;26.03;100.00
6829;BME280;17930;48.592;8.868;2023-08-30T10:36:59;96058.41;;;24.63;100.00
6829;BME280;17930;48.592;8.868;2023-08-30T10:39:33;96051.28;;;25.57;100.00
6829;BME280;17930;48.592;8.868;2023-08-30T10:42:07;96051.63;;;25.86;100.00
6829;BME280;17930;48.592;8.868;2023-08-30T10:44:34;96051.84;;;26.37;100.00
6829;BME280;17930;48.592;8.868;2023-08-30T10:47:03;96045.38;;;27.06;100.00
6829;BME280;17930;48.592;8.868;2023-08-30T10:49:39;96038.19;;;27.43;100.00
6829;BME280;17930;48.592;8.868;2023-08-30T10:52:11;96042.53;;;27.74;100.00
6829;BME280;17930;48.592;8.868;2023-08-30T10:54:39;96043.97;;;26.81;100.00
6829;BME280;17930;48.592;8.868;2023-08-30T10:57:12;96033.06;;;27.15;100.00
6829;BME280;17930;48.592;8.868;2023-08-30T10:59:39;96036.78;;;27.28;100.00
6829;BME280;17930;48.592;8.868;2023-08-30T11:02:07;96039.13;;;27.23;100.00
6829;BME280;17930;48.592;8.868;2023-08-30T11:04:39;96035.94;;;27.38;100.00
6829;BME280;17930;48.592;8.868;2023-08-30T11:07:06;96026.47;;;27.70;96.81
6829;BME280;17930;48.592;8.868;2023-08-30T11:09:33;96033.47;;;27.10;100.00
6829;BME280;17930;48.592;8.868;2023-08-30T11:12:04;96034.00;;;26.84;100.00
6829;BME280;17930;48.592;8.868;2023-08-30T11:14:32;96021.00;;;26.83;100.00
6829;BME280;17930;48.592;8.868;2023-08-30T11:16:58;96019.88;;;26.02;98.13
6829;BME280;17930;48.592;8.868;2023-08-30T11:19:29;96024.50;;;25.64;100.00
6829;BME280;17930;48.592;8.868;2023-08-30T11:21:56;96018.38;;;25.80;100.00
6829;BME280;17930;48.592;8.868;2023-08-30T11:24:23;96024.53;;;25.01;100.00
6829;BME280;17930;48.592;8.868;2023-08-30T11:26:52;96043.44;;;24.34;100.00
6829;BME280;17930;48.592;8.868;2023-08-30T11:29:21;96065.25;;;21.95;100.00
6829;BME280;17930;48.592;8.868;2023-08-30T11:31:48;96068.78;;;21.51;100.00
6829;BME280;17930;48.592;8.868;2023-08-30T11:34:19;96063.66;;;20.72;100.00
6829;BME280;17930;48.592;8.868;2023-08-30T11:36:46;96070.50;;;19.98;100.00
6829;BME280;17930;48.592;8.868;2023-08-30T11:39:13;96073.81;;;19.60;100.00
6829;BME280;17930;48.592;8.868;2023-08-30T11:41:41;96088.34;;;19.51;100.00
6829;BME280;17930;48.592;8.868;2023-08-30T11:44:08;96085.06;;;19.73;100.00
6829;BME280;17930;48.592;8.868;2023-08-30T11:46:36;96095.09;;;19.18;100.00
6829;BME280;17930;48.592;8.868;2023-08-30T11:49:03;96106.91;;;18.93;100.00
6829;BME280;17930;48.592;8.868;2023-08-30T11:51:31;96119.16;;;17.92;100.00
6829;BME280;17930;48.592;8.868;2023-08-30T11:54:01;96134.25;;;17.44;100.00
6829;BME280;17930;48.592;8.868;2023-08-30T11:56:29;96137.75;;;16.80;100.00
6829;BME280;17930;48.592;8.868;2023-08-30T11:58:56;96130.09;;;16.55;100.00
6829;BME280;17930;48.592;8.868;2023-08-30T12:01:23;96119.06;;;16.21;100.00
6829;BME280;17930;48.592;8.868;2023-08-30T12:03:51;96120.63;;;15.93;100.00
6829;BME280;17930;48.592;8.868;2023-08-30T12:06:18;96113.97;;;15.95;100.00
6829;BME280;17930;48.592;8.868;2023-08-30T12:08:44;96115.41;;;16.13;100.00
6829;BME280;17930;48.592;8.868;2023-08-30T12:11:18;96118.63;;;16.19;100.00
6829;BME280;17930;48.592;8.868;2023-08-30T12:13:46;96119.06;;;16.41;100.00
6829;BME280;17930;48.592;8.868;2023-08-30T12:16:16;96116.25;;;16.58;100.00
6829;BME280;17930;48.592;8.868;2023-08-30T12:18:43;96105.88;;;16.73;100.00
6829;BME280;17930;48.592;8.868;2023-08-30T12:21:13;96103.16;;;16.82;100.00
6829;BME280;17930;48.592;8.868;2023-08-30T12:23:40;96103.97;;;17.06;100.00
6829;BME280;17930;48.592;8.868;2023-08-30T12:26:08;96108.41;;;17.26;100.00
6829;BME280;17930;48.592;8.868;2023-08-30T12:28:37;96103.53;;;17.16;100.00
6829;BME280;17930;48.592;8.868;2023-08-30T12:31:04;96093.50;;;17.30;100.00
6829;BME280;17930;48.592;8.868;2023-08-30T12:33:31;96097.00;;;17.34;100.00
6829;BME280;17930;48.592;8.868;2023-08-30T12:35:58;96093.25;;;17.46;100.00
6829;BME280;17930;48.592;8.868;2023-08-30T12:38:26;96091.94;;;17.64;100.00
6829;BME280;17930;48.592;8.868;2023-08-30T12:40:54;96086.47;;;17.57;100.00
6829;BME280;17930;48.592;8.868;2023-08-30T12:43:22;96094.81;;;17.71;100.00
6829;BME280;17930;48.592;8.868;2023-08-30T12:45:49;96086.19;;;17.86;100.00
6829;BME280;17930;48.592;8.868;2023-08-30T12:48:17;96094.91;;;18.26;100.00
6829;BME280;17930;48.592;8.868;2023-08-30T12:50:45;96081.91;;;18.75;100.00
6829;BME280;17930;48.592;8.868;2023-08-30T12:53:12;96080.09;;;19.06;100.00
6829;BME280;17930;48.592;8.868;2023-08-30T12:55:41;96072.38;;;19.97;100.00
6829;BME280;17930;48.592;8.868;2023-08-30T12:58:09;96060.03;;;20.80;100.00
6829;BME280;17930;48.592;8.868;2023-08-30T13:00:37;96058.84;;;21.99;100.00
6829;BME280;17930;48.592;8.868;2023-08-30T13:03:04;96049.63;;;23.27;100.00